AirNav   Everest Fuels
 
 1465 users online  

MI54 Helifarm Heliport
Monroe, Michigan, USA

GOING TO MONROE?


FAA INFORMATION EFFECTIVE 02 JANUARY 2020

Location

FAA Identifier: MI54
Lat/Long: 41-47-37.0000N 083-32-17.0000W
41-47.616667N 083-32.283333W
41.7936111,-83.5380556
(estimated)
Elevation: 610 ft. / 186 m (estimated)
Variation: 06W (2000)
From city: 2 miles E of MONROE, MI
Time zone: UTC -5 (UTC -4 during Daylight Saving Time)
Zip code: 48182

Heliport Operations

Heliport use: Private use. Permission required prior to landing
Activation date: 11/2002
Control tower: no
ARTCC: CLEVELAND CENTER
FSS: LANSING FLIGHT SERVICE STATION
Attendance: UNATNDD
Segmented circle: no

Heliport Communications

WX AWOS-3 at DUH (6 nm SW): 119.175 (734-856-1563)
WX AWOS-3 at TTF (10 nm NE): 119.075 (734-384-0259)
WX ASOS at TDZ (14 nm S): 121.575 (419-838-5034)
WX ASOS at TOL (17 nm SW): PHONE 419-865-6924

Nearby radio navigation aids

VOR radial/distance  VOR name  Freq  Var
CRLr196/15.7CARLETON VOR/DME115.7003W
VWVr014/21.0WATERVILLE VOR/DME113.1002W
DXOr203/26.3DETROIT VOR/DME113.4006W
SVMr179/37.0SALEM VORTAC114.3003W

 
NDB name  Hdg/Dist  Freq  Var  ID
TECUMSEH139/21.223906WTCU - -.-. ..-
ADRIAN107/24.527806WADG .- -.. --.
GROSSE ILE230/25.241907WRYS .-. -.-- ...
PORT CLINTON306/34.242307WPCW .--. -.-. .--

Heliport Services

Runway Information

Helipad H1

Dimensions: 35 x 60 ft. / 11 x 18 m
Surface: turf
Traffic pattern: leftleft

Heliport Ownership and Management from official FAA records

Ownership: Privately-owned
Owner: KEVIN WALKER
708 E ERIE RD
TEMPERANCE, MI 48182
Phone (419) 297-3075
Manager: KEVIN WALKER
708 E ERIE RD
TEMPERANCE, MI 48182
Phone (419) 297-3075

Additional Remarks

A52-H1 18 FT BLDG SOUTH OF PAD AND 32 FT BLDG EAST OF PAD.
FOR CD CTC TOLEDO APCH AT 419-865-1495

Instrument Procedures

There are no published instrument procedures at MI54.

Some nearby airports with instrument procedures:

KDUH - Toledo Suburban Airport (6 nm SW)
KTTF - Custer Airport (10 nm NE)
KTDZ - Toledo Executive Airport (14 nm S)
KTOL - Toledo Express Airport (17 nm SW)
1G0 - Wood County Airport (25 nm S)
 
Loc | Ops | Rwys | IFR | FBO | Links
Com | Nav | Svcs | Stats | Notes
Area around MI54 (Helifarm Heliport)
 
Road maps at: MapQuest Bing Google
 
Aerial photo
No photo
 
Sectional chart

 
Airport distance calculator
Flying to Helifarm Heliport? Find the distance to fly.

From to MI54

Sunrise and sunset
Times for 23-Jan-2020
 Local
(UTC-5)
 Zulu
(UTC)
Morning civil twilight07:2512:25
Sunrise07:5512:55
Sunset17:3722:37
Evening civil twilight18:0723:07

Current date and time
Zulu (UTC)  23-Jan-2020 23:26:38
Local (UTC-5)  23-Jan-2020 18:26:38
 
METAR
KDUH 
6nm SW 
232315Z AUTO 00000KT 10SM BKN100 OVC110 02/M04 A3016 RMK AO2 T00231036
KTTF 
10nm NE 
232315Z AUTO 09003KT 10SM OVC085 01/M04 A3016 RMK AO2 T00101036
KTDZ 
14nm S 
232253Z AUTO 10004KT 10SM OVC100 03/M03 A3017 RMK AO2 SLP223 T00331028
KTOL 
17nm SW 
232252Z 12003KT 10SM OVC090 04/M04 A3015 RMK AO2 SLP218 T00441039
TAF
KTOL 
17nm SW 
231723Z 2318/2418 13005KT P6SM SCT050 OVC150 FM240700 10007KT 5SM -FZRASN SCT030 OVC050 FM241200 08009KT 3SM -FZRASN SCT005 OVC025 WS020/14035KT FM241400 09009KT 6SM -RA SCT005 OVC020
NOTAMs
Click for the latest NOTAMs
NOTAMs are issued by the DoD/FAA and will open in a separate window not controlled by AirNav.

 

 
 

Would you like to see your business listed on this page?

 If your business provides an interesting product or service to pilots, flight crews, aircraft, or users of the Helifarm Heliport, you should consider listing it here.  To start the listing process, click on the button below
 
Add a business
 

Other Pages about Helifarm Heliport

Update a link
 
Copyright © AirNav, LLC. All rights reserved. Privacy Policy  Contact